Time;durP1;ratioP1;P1;durP2;ratioP2;P2;SDS_P1;SDS_P2;PMS_P1;PMS_P2;Temp;Humidity;BMP_temperature;BMP_pressure;BME280_temperature;BME280_humidity;BME280_pressure;Samples;Min_cycle;Max_cycle;Signal;HPM_P1;HPM_P2
2022/04/22 00:01:05;;;;;;;14.77;6.15;;;;;;;7.25;62.06;98990.00;5073106;28;20052;-69
2022/04/22 00:03:34;;;;;;;9.25;5.28;;;;;;;7.20;61.95;98986.59;5075005;28;20036;-69
2022/04/22 00:06:05;;;;;;;8.83;4.43;;;;;;;7.16;61.67;98984.91;5073445;28;20047;-69
2022/04/22 00:08:35;;;;;;;9.65;4.72;;;;;;;7.17;62.22;98976.47;5074368;28;20049;-69
2022/04/22 00:13:42;;;;;;;7.00;4.22;;;;;;;7.17;62.02;98971.41;5073654;28;20510;-70
2022/04/22 00:16:12;;;;;;;7.05;4.45;;;;;;;7.00;62.39;98951.09;5074211;28;20040;-70
2022/04/22 00:18:41;;;;;;;6.20;3.60;;;;;;;7.16;62.34;98959.56;5074584;28;20071;-70
2022/04/22 00:21:12;;;;;;;7.67;4.13;;;;;;;6.67;61.87;98887.63;5072964;28;20135;-70
2022/04/22 00:23:41;;;;;;;7.72;4.38;;;;;;;7.08;62.20;98958.72;5074041;28;20044;-70
2022/04/22 00:26:16;;;;;;;10.75;4.32;;;;;;;7.05;62.37;98956.16;5074049;28;20090;-70
2022/04/22 00:28:45;;;;;;;8.43;4.80;;;;;;;7.07;62.22;98960.41;5072980;28;20548;-70
2022/04/22 00:31:14;;;;;;;6.50;4.13;;;;;;;6.95;62.52;98949.38;5072654;28;20476;-70
2022/04/22 00:33:43;;;;;;;13.57;6.15;;;;;;;7.00;62.42;98955.31;5073899;28;20384;-70
2022/04/22 00:36:14;;;;;;;10.20;4.97;;;;;;;7.01;62.56;98954.44;5072994;28;20044;-70
2022/04/22 00:38:43;;;;;;;8.93;4.43;;;;;;;6.81;62.15;98916.41;5074212;28;20851;-70
2022/04/22 00:41:12;;;;;;;9.07;4.35;;;;;;;6.92;62.46;98931.59;5073779;28;20080;-70
2022/04/22 00:43:42;;;;;;;8.53;4.27;;;;;;;6.99;62.53;98946.00;5074393;28;20033;-70
2022/04/22 00:46:12;;;;;;;7.15;4.15;;;;;;;6.96;62.08;98946.00;5074155;28;20050;-70
2022/04/22 00:48:42;;;;;;;5.75;3.72;;;;;;;6.93;62.43;98946.84;5074271;28;20486;-70
2022/04/22 00:51:12;;;;;;;6.80;3.65;;;;;;;6.84;62.96;98935.84;5074266;28;20044;-70
2022/04/22 00:53:46;;;;;;;7.80;3.67;;;;;;;6.88;62.36;98932.47;5074034;28;20046;-70
2022/04/22 00:56:15;;;;;;;6.60;3.70;;;;;;;6.84;62.84;98938.38;5072468;28;20055;-70
2022/04/22 00:58:46;;;;;;;6.88;4.05;;;;;;;6.83;62.95;98934.13;5073567;28;20529;-70
2022/04/22 01:01:15;;;;;;;5.40;3.47;;;;;;;6.83;62.73;98929.91;5073458;28;20102;-70
2022/04/22 01:11:57;;;;;;;6.07;3.40;;;;;;;6.68;62.91;98920.59;5059830;28;20052;-69
2022/04/22 01:14:26;;;;;;;6.45;3.90;;;;;;;6.68;62.83;98920.59;5073784;28;20048;-69
2022/04/22 01:16:55;;;;;;;6.72;3.25;;;;;;;6.64;62.83;98923.09;5072632;28;20100;-69
2022/04/22 01:19:24;;;;;;;7.38;3.67;;;;;;;6.63;63.26;98912.13;5073711;28;20060;-69
2022/04/22 01:21:55;;;;;;;5.40;3.10;;;;;;;6.62;63.18;98920.56;5073560;28;20091;-69
2022/04/22 01:24:25;;;;;;;5.93;3.58;;;;;;;6.60;63.14;98919.72;5073882;28;20623;-69
2022/04/22 01:26:56;;;;;;;7.20;3.83;;;;;;;6.52;62.88;98908.72;5073381;28;20052;-69
2022/04/22 01:29:26;;;;;;;10.85;4.93;;;;;;;6.56;63.26;98915.47;5073667;28;20114;-69
2022/04/22 01:31:55;;;;;;;9.65;5.20;;;;;;;6.54;63.46;98912.09;5073256;28;20509;-69
2022/04/22 01:34:24;;;;;;;10.83;4.50;;;;;;;6.49;63.14;98908.72;5076714;28;20090;-69
2022/04/22 01:36:53;;;;;;;9.60;4.90;;;;;;;6.16;63.63;98863.00;5077612;28;20278;-69
2022/04/22 01:39:25;;;;;;;5.45;3.40;;;;;;;6.42;63.86;98891.78;5077192;28;20147;-70
2022/04/22 01:41:55;;;;;;;7.32;3.78;;;;;;;6.48;63.82;98893.47;5077165;28;20127;-69
2022/04/22 01:44:25;;;;;;;10.27;4.65;;;;;;;6.46;63.74;98895.16;5077367;28;20068;-70
2022/04/22 01:46:55;;;;;;;10.43;4.97;;;;;;;6.42;63.81;98896.84;5077109;28;20062;-69
2022/04/22 01:49:24;;;;;;;10.13;4.65;;;;;;;6.37;63.81;98902.75;5077189;28;20049;-69
2022/04/22 01:51:55;;;;;;;6.38;3.92;;;;;;;6.33;64.06;98896.84;5076039;28;20403;-69
2022/04/22 01:54:34;;;;;;;7.00;3.75;;;;;;;6.18;64.03;98860.44;5077227;28;20044;-69
2022/04/22 01:57:04;;;;;;;7.80;3.85;;;;;;;6.37;63.76;98883.31;5077060;28;20059;-69
2022/04/22 01:59:34;;;;;;;6.10;3.40;;;;;;;6.32;64.05;98879.06;5075885;28;20057;-69
2022/04/22 02:02:04;;;;;;;5.63;3.25;;;;;;;6.28;64.08;98878.22;5075407;28;20506;-69
2022/04/22 02:04:33;;;;;;;7.88;3.38;;;;;;;6.17;64.10;98874.78;5076700;28;20048;-69
2022/04/22 02:07:02;;;;;;;7.32;4.22;;;;;;;5.92;64.46;98835.91;5076646;28;20044;-69
2022/04/22 02:09:33;;;;;;;8.88;4.05;;;;;;;6.09;64.55;98871.41;5076905;28;20477;-69
2022/04/22 02:12:02;;;;;;;7.60;3.72;;;;;;;5.89;64.33;98837.56;5076636;28;20521;-69
2022/04/22 02:14:31;;;;;;;8.27;4.57;;;;;;;6.08;64.94;98874.78;5076536;28;20040;-69
2022/04/22 02:17:00;;;;;;;8.85;3.88;;;;;;;6.07;64.84;98873.91;5076836;28;20049;-69
2022/04/22 02:19:31;;;;;;;7.90;4.63;;;;;;;6.03;65.15;98866.31;5076504;28;20176;-69
2022/04/22 02:22:00;;;;;;;8.60;4.65;;;;;;;6.04;65.09;98862.94;5076325;28;20089;-69
2022/04/22 02:24:29;;;;;;;8.40;4.30;;;;;;;6.03;65.16;98851.09;5076389;28;20043;-69
2022/04/22 02:29:38;;;;;;;9.68;3.80;;;;;;;6.10;64.82;98860.41;5075141;28;20128;-70
2022/04/22 02:32:08;;;;;;;6.63;3.07;;;;;;;6.15;64.86;98861.28;5076553;28;20049;-70
2022/04/22 02:34:37;;;;;;;9.25;4.65;;;;;;;6.14;64.71;98849.47;5076288;28;20576;-70
2022/04/22 02:37:07;;;;;;;10.32;5.00;;;;;;;6.12;64.46;98856.19;5076286;28;20053;-70
2022/04/22 02:39:36;;;;;;;9.32;4.80;;;;;;;6.12;64.85;98851.13;5076437;28;20053;-70
2022/04/22 02:47:25;;;;;;;8.15;4.03;;;;;;;5.91;64.69;98820.69;5076354;28;20123;-69
2022/04/22 02:49:54;;;;;;;7.95;3.97;;;;;;;5.34;64.59;98725.09;5076162;28;20041;-69
2022/04/22 02:52:23;;;;;;;7.83;4.20;;;;;;;6.12;65.38;98851.13;5075907;28;20131;-69
2022/04/22 02:54:51;;;;;;;9.53;4.90;;;;;;;6.13;64.61;98849.47;5058092;28;20043;-69
2022/04/22 02:57:22;;;;;;;11.73;6.00;;;;;;;5.94;65.20;98808.03;5075705;28;20051;-69
2022/04/22 02:59:52;;;;;;;8.02;4.45;;;;;;;6.13;64.84;98837.66;5076276;28;20052;-70
2022/04/22 03:02:21;;;;;;;10.17;4.40;;;;;;;5.82;64.94;98785.16;5075632;28;20036;-70
2022/04/22 03:04:50;;;;;;;8.80;4.22;;;;;;;6.02;64.95;98808.91;5075967;28;20513;-70
2022/04/22 03:07:19;;;;;;;5.93;3.27;;;;;;;6.18;65.01;98828.38;5075821;28;20040;-70
2022/04/22 03:09:48;;;;;;;7.73;4.53;;;;;;;6.18;64.67;98825.00;5075695;28;20041;-70
2022/04/22 03:12:17;;;;;;;8.02;4.05;;;;;;;6.15;65.05;98815.69;5074470;28;20040;-70
2022/04/22 03:14:47;;;;;;;7.43;4.55;;;;;;;6.15;65.16;98819.91;5075438;28;20048;-70
2022/04/22 03:17:16;;;;;;;9.18;3.88;;;;;;;6.14;65.07;98813.16;5074230;28;20056;-70
2022/04/22 03:19:45;;;;;;;9.03;5.07;;;;;;;6.10;65.25;98807.22;5075792;28;20036;-70
2022/04/22 03:22:15;;;;;;;9.50;5.47;;;;;;;6.04;65.64;98802.16;5074085;28;20132;-70
2022/04/22 03:24:45;;;;;;;13.77;6.07;;;;;;;6.03;65.80;98805.53;5075567;28;20444;-70
2022/04/22 03:27:14;;;;;;;18.05;7.93;;;;;;;6.03;65.95;98810.59;5075210;28;20049;-70
2022/04/22 03:29:43;;;;;;;14.50;6.87;;;;;;;6.02;66.16;98819.03;5075508;28;20490;-70
2022/04/22 03:32:14;;;;;;;15.07;6.32;;;;;;;6.07;66.11;98824.94;5075088;28;20048;-70
2022/04/22 03:34:43;;;;;;;10.55;5.63;;;;;;;6.07;66.22;98818.19;5075386;28;20139;-70
2022/04/22 03:37:12;;;;;;;9.70;5.27;;;;;;;6.09;66.01;98810.63;5074959;28;20055;-70
2022/04/22 03:39:41;;;;;;;10.50;4.83;;;;;;;6.16;66.20;98816.53;5074936;28;20285;-70
2022/04/22 03:42:10;;;;;;;9.40;4.07;;;;;;;6.17;66.49;98803.88;5075099;28;20482;-70
2022/04/22 03:44:39;;;;;;;8.95;5.22;;;;;;;6.23;65.98;98815.72;5074869;28;20277;-70
2022/04/22 03:47:08;;;;;;;11.38;6.68;;;;;;;6.27;65.86;98805.59;5075072;28;20044;-70
2022/04/22 03:49:39;;;;;;;15.38;6.90;;;;;;;6.32;66.30;98813.19;5074661;28;20045;-70
2022/04/22 03:52:08;;;;;;;10.15;5.70;;;;;;;6.35;65.79;98816.59;5073726;28;20144;-70
2022/04/22 03:54:41;;;;;;;12.55;5.70;;;;;;;6.18;66.17;98780.25;5074915;28;20555;-70
2022/04/22 03:59:49;;;;;;;10.65;5.75;;;;;;;6.32;65.92;98778.56;5074864;28;20444;-70
2022/04/22 04:02:18;;;;;;;7.90;4.40;;;;;;;6.63;66.26;98810.72;5074349;28;20406;-70
2022/04/22 04:04:49;;;;;;;16.63;5.53;;;;;;;6.67;66.27;98809.88;5073329;28;20787;-70
2022/04/22 04:07:18;;;;;;;11.63;5.80;;;;;;;6.71;66.23;98800.59;5074756;28;20281;-70
2022/04/22 04:17:44;;;;;;;13.25;6.20;;;;;;;6.85;65.97;98795.50;5074296;28;20123;-70
2022/04/22 04:25:32;;;;;;;8.10;5.30;;;;;;;7.08;65.59;98798.88;5073188;28;20063;-70
2022/04/22 04:28:02;;;;;;;8.93;5.10;;;;;;;6.91;65.63;98772.69;5074356;28;20461;-70
2022/04/22 04:30:31;;;;;;;10.02;4.82;;;;;;;7.09;65.69;98792.94;5073990;28;20040;-70
2022/04/22 04:33:01;;;;;;;8.18;4.85;;;;;;;7.10;65.42;98798.00;5074024;28;20082;-70
2022/04/22 04:35:31;;;;;;;12.38;5.75;;;;;;;7.10;65.63;98794.66;5073909;28;20064;-70
2022/04/22 04:38:01;;;;;;;10.90;4.88;;;;;;;7.09;65.33;98790.41;5073914;28;20052;-70
2022/04/22 04:40:32;;;;;;;10.15;5.25;;;;;;;7.11;65.32;98806.47;5074090;28;20037;-70
2022/04/22 04:43:02;;;;;;;10.30;5.22;;;;;;;7.15;65.29;98801.38;5074024;28;20479;-70
2022/04/22 04:45:32;;;;;;;;;;;;;;;7.22;65.95;98807.31;5074185;28;20060;-70
2022/04/22 04:48:01;;;;;;;8.90;4.80;;;;;;;7.28;65.30;98797.16;5073699;28;19955;-70
2022/04/22 04:50:32;;;;;;;9.95;5.30;;;;;;;7.27;65.14;98800.56;5073800;28;20532;-70
2022/04/22 04:53:07;;;;;;;10.48;5.07;;;;;;;7.30;65.28;98800.53;5073956;28;20052;-70
2022/04/22 04:55:36;;;;;;;10.03;5.17;;;;;;;7.35;64.69;98798.81;5073912;28;20398;-70
2022/04/22 04:58:06;;;;;;;9.60;5.37;;;;;;;7.42;64.90;98805.56;5073725;28;20361;-70
2022/04/22 05:00:35;;;;;;;10.27;5.28;;;;;;;7.35;64.81;98786.13;5073614;28;20653;-70
2022/04/22 05:03:04;;;;;;;;;;;;;;;7.47;64.64;98798.78;5074300;28;20417;-70
2022/04/22 05:05:35;;;;;;;8.50;4.28;;;;;;;7.54;64.72;98800.47;5073589;28;19987;-71
2022/04/22 05:08:06;;;;;;;7.68;4.63;;;;;;;7.54;64.10;98795.38;5073427;28;20440;-70
2022/04/22 05:10:36;;;;;;;8.75;4.78;;;;;;;7.56;63.98;98796.22;5073508;28;20083;-70
2022/04/22 05:13:06;;;;;;;10.98;4.97;;;;;;;7.65;63.97;98797.91;5088681;28;20045;-70
2022/04/22 05:15:35;;;;;;;9.45;5.05;;;;;;;7.49;63.05;98750.53;5072444;28;20543;-70
2022/04/22 05:18:05;;;;;;;9.70;5.00;;;;;;;7.74;63.41;98793.63;5073432;28;20072;-69
2022/04/22 05:20:36;;;;;;;8.57;5.20;;;;;;;7.83;63.49;98792.75;5073487;28;20083;-70
2022/04/22 05:23:05;;;;;;;13.55;5.75;;;;;;;7.85;63.57;98791.88;5073242;28;20051;-69
2022/04/22 05:25:34;;;;;;;8.23;4.38;;;;;;;7.85;63.67;98796.13;5073543;28;20048;-69
2022/04/22 05:28:06;;;;;;;14.15;6.25;;;;;;;7.91;63.49;98794.41;5073787;28;20040;-69
2022/04/22 05:33:19;;;;;;;12.55;5.65;;;;;;;7.99;62.96;98769.78;5073155;28;20090;-70
2022/04/22 05:35:51;;;;;;;8.65;5.22;;;;;;;8.13;62.79;98775.66;5074179;28;20051;-70
2022/04/22 05:38:24;;;;;;;8.65;5.32;;;;;;;8.20;62.12;98773.94;5073352;28;20589;-70
2022/04/22 05:40:53;;;;;;;9.80;5.10;;;;;;;8.26;63.14;98773.91;5073293;28;20429;-70
2022/04/22 05:43:22;;;;;;;8.73;5.00;;;;;;;8.20;62.21;98745.13;5073147;28;20055;-70
2022/04/22 05:45:51;;;;;;;9.50;5.40;;;;;;;8.37;62.67;98771.31;5073221;28;20045;-70
2022/04/22 05:48:20;;;;;;;15.02;5.43;;;;;;;8.42;62.20;98769.59;5073116;28;20281;-70
2022/04/22 05:50:51;;;;;;;9.27;5.45;;;;;;;8.50;61.65;98763.59;5073937;28;20041;-70
2022/04/22 05:53:20;;;;;;;9.43;5.28;;;;;;;8.54;61.98;98764.41;5073028;28;20064;-70
2022/04/22 05:55:49;;;;;;;10.25;5.35;;;;;;;8.59;61.30;98757.59;5073444;28;20402;-70
2022/04/22 05:58:19;;;;;;;11.20;5.33;;;;;;;8.66;61.91;98769.41;5073027;28;20045;-70
2022/04/22 06:00:48;;;;;;;6.87;4.10;;;;;;;8.66;62.08;98766.88;5071661;28;20277;-70
2022/04/22 06:03:23;;;;;;;14.57;5.65;;;;;;;8.74;61.62;98767.63;5071715;28;20045;-70
2022/04/22 06:05:54;;;;;;;9.20;5.40;;;;;;;8.85;61.17;98760.78;5072977;28;20128;-70
2022/04/22 06:11:01;;;;;;;10.02;5.70;;;;;;;8.61;61.04;98715.19;5072070;28;20037;-70
2022/04/22 06:13:30;;;;;;;7.23;4.13;;;;;;;8.95;61.25;98772.53;5073037;28;20047;-70
2022/04/22 06:15:59;;;;;;;6.33;3.97;;;;;;;9.01;61.08;98762.31;5073177;28;20567;-69
2022/04/22 06:18:28;;;;;;;7.88;4.88;;;;;;;8.99;61.05;98758.94;5072805;28;20331;-70
2022/04/22 06:20:59;;;;;;;10.57;5.27;;;;;;;9.02;60.46;98758.88;5075350;28;20090;-70
2022/04/22 06:23:28;;;;;;;9.48;5.55;;;;;;;8.52;61.09;98669.47;5075214;28;20441;-70
2022/04/22 06:25:57;;;;;;;11.27;6.13;;;;;;;8.90;60.53;98723.38;5075364;28;20040;-70
2022/04/22 06:28:26;;;;;;;10.63;5.05;;;;;;;9.08;60.72;98756.31;5076210;28;20032;-70
2022/04/22 06:30:56;;;;;;;9.27;5.23;;;;;;;9.15;59.95;98770.66;5076325;28;20067;-70
2022/04/22 06:33:26;;;;;;;10.80;5.63;;;;;;;9.23;60.45;98784.16;5076178;28;20715;-70
2022/04/22 06:35:57;;;;;;;9.00;5.68;;;;;;;9.22;61.02;98777.38;5074983;28;20140;-70
2022/04/22 06:38:28;;;;;;;12.57;5.65;;;;;;;9.26;60.46;98779.00;5076135;28;20057;-70
2022/04/22 06:46:17;;;;;;;8.98;5.45;;;;;;;9.36;60.39;98772.97;5075156;28;20234;-70
2022/04/22 06:48:47;;;;;;;11.13;5.20;;;;;;;9.39;60.48;98767.88;5075465;28;20076;-71
2022/04/22 06:51:19;;;;;;;11.40;5.47;;;;;;;9.35;59.93;98758.56;5076054;28;20398;-70
2022/04/22 06:53:52;;;;;;;10.65;4.75;;;;;;;9.35;60.43;98753.47;5081194;28;20463;-70
2022/04/22 06:56:26;;;;;;;8.77;5.55;;;;;;;9.52;59.61;98775.38;5090409;28;20043;-70
2022/04/22 06:58:56;;;;;;;10.13;5.70;;;;;;;9.56;60.82;98770.22;5095962;28;20134;-70
2022/04/22 07:01:25;;;;;;;8.75;4.93;;;;;;;9.64;60.15;98770.13;5095748;28;20040;-70
2022/04/22 07:04:12;;;;;;;13.75;5.82;;;;;;;9.60;60.66;98758.31;5090339;28;20118;-70
2022/04/22 07:06:42;;;;;;;9.68;5.43;;;;;;;9.72;60.26;98778.50;5082231;28;20047;-70
2022/04/22 07:09:13;;;;;;;9.25;5.63;;;;;;;9.78;60.32;98768.25;5096137;28;20497;-70
2022/04/22 07:11:45;;;;;;;9.85;5.07;;;;;;;9.80;60.62;98776.72;5095805;28;20048;-69
2022/04/22 07:14:14;;;;;;;9.93;5.45;;;;;;;9.85;60.41;98774.97;5096030;28;20051;-69
2022/04/22 07:16:45;;;;;;;;;;;;;;;9.97;60.71;98780.75;5096367;28;20093;-69
2022/04/22 07:19:14;;;;;;;10.52;5.55;;;;;;;9.83;60.71;98746.13;5094831;28;19927;-70
2022/04/22 07:21:46;;;;;;;9.93;5.82;;;;;;;10.15;60.93;98779.69;5095518;28;20094;-69
2022/04/22 07:24:18;;;;;;;10.93;5.90;;;;;;;10.28;60.79;98781.22;5095508;28;20127;-69
2022/04/22 07:26:47;;;;;;;10.52;5.90;;;;;;;10.33;61.57;98774.34;5095434;28;20060;-69
2022/04/22 07:29:19;;;;;;;8.63;5.68;;;;;;;10.44;61.79;98772.47;5089007;28;20135;-70
2022/04/22 07:31:48;;;;;;;10.98;5.90;;;;;;;10.50;61.36;98774.94;5091001;28;20040;-70
2022/04/22 07:34:18;;;;;;;8.15;5.78;;;;;;;10.56;60.79;98774.84;5093539;28;20039;-70
2022/04/22 07:36:47;;;;;;;10.18;6.03;;;;;;;10.60;60.78;98768.84;5094802;28;20093;-70
2022/04/22 07:39:18;;;;;;;8.55;5.93;;;;;;;10.60;60.20;98761.19;5092243;28;20089;-70
2022/04/22 07:41:49;;;;;;;10.13;5.97;;;;;;;10.71;60.06;98772.06;5094981;28;20127;-70
2022/04/22 07:47:08;;;;;;;10.50;6.07;;;;;;;10.84;59.53;98767.59;5092706;28;20040;-69
2022/04/22 07:49:37;;;;;;;8.90;5.63;;;;;;;10.89;59.58;98739.44;5090897;28;20032;-70
2022/04/22 07:52:07;;;;;;;11.30;6.13;;;;;;;11.14;59.47;98761.09;5087787;28;20040;-70
2022/04/22 07:54:37;;;;;;;10.68;5.78;;;;;;;11.08;59.38;98746.75;5095254;28;20153;-70
2022/04/22 07:57:07;;;;;;;12.95;6.07;;;;;;;11.27;59.03;98763.44;5091669;28;20146;-70
2022/04/22 07:59:35;;;;;;;8.40;4.83;;;;;;;11.37;58.90;98759.00;5091673;28;20482;-70
2022/04/22 08:02:05;;;;;;;10.90;6.75;;;;;;;11.41;59.18;98758.06;5091806;28;20136;-70
2022/04/22 08:04:34;;;;;;;9.65;6.22;;;;;;;11.42;59.15;98757.19;5092909;28;20040;-70
2022/04/22 08:07:05;;;;;;;8.57;4.43;;;;;;;11.46;59.11;98753.72;5094747;28;20534;-70
2022/04/22 08:09:53;;;;;;;10.30;6.47;;;;;;;11.35;59.28;98735.16;5094677;28;20067;-69
2022/04/22 08:12:22;;;;;;;11.77;6.22;;;;;;;11.59;59.36;98762.81;5094835;28;20040;-71
2022/04/22 08:14:58;;;;;;;7.10;5.45;;;;;;;11.68;58.29;98759.28;5092967;28;20079;-70
2022/04/22 08:17:28;;;;;;;10.02;5.95;;;;;;;11.72;58.16;98748.09;5095032;28;20051;-70
2022/04/22 08:19:57;;;;;;;9.10;5.07;;;;;;;11.76;57.06;98753.13;5093544;28;20142;-71
2022/04/22 08:22:26;;;;;;;9.73;5.20;;;;;;;11.83;56.34;98757.22;5094689;28;20050;-70
2022/04/22 08:25:38;;;;;;;8.30;5.87;;;;;;;11.91;55.49;98757.94;5092571;28;20036;-71
2022/04/22 08:28:09;;;;;;;9.27;6.03;;;;;;;11.94;54.97;98747.66;5094810;28;20036;-71
2022/04/22 08:30:38;;;;;;;11.75;5.20;;;;;;;12.05;54.94;98750.81;5094309;28;20110;-71
2022/04/22 08:33:07;;;;;;;8.32;5.20;;;;;;;12.19;55.16;98747.13;5077955;28;20048;-69
2022/04/22 08:35:42;;;;;;;10.82;5.78;;;;;;;12.23;54.67;98746.16;5084259;28;20040;-69
2022/04/22 08:38:15;;;;;;;7.88;5.28;;;;;;;12.26;54.29;98738.44;5081414;28;20040;-69
2022/04/22 08:40:45;;;;;;;10.23;5.60;;;;;;;12.37;54.16;98741.56;5094333;28;20093;-69
2022/04/22 08:43:16;;;;;;;7.90;4.82;;;;;;;12.50;53.60;98737.84;5087412;28;20044;-69
2022/04/22 08:45:45;;;;;;;8.35;4.95;;;;;;;12.37;52.72;98708.31;5078272;28;20040;-70
2022/04/22 08:50:55;;;;;;;10.02;5.80;;;;;;;12.52;51.25;98741.22;5073693;28;20052;-69
2022/04/22 08:53:28;;;;;;;9.93;5.13;;;;;;;12.55;51.49;98736.00;5073618;28;20060;-69
2022/04/22 08:55:59;;;;;;;8.50;4.97;;;;;;;12.57;51.19;98739.41;5073261;28;20078;-68
2022/04/22 08:58:31;;;;;;;8.75;5.18;;;;;;;12.57;51.58;98729.97;5073880;28;20221;-69
2022/04/22 09:01:00;;;;;;;9.07;5.45;;;;;;;12.43;51.52;98701.31;5073053;28;20143;-70
2022/04/22 09:03:30;;;;;;;7.97;4.97;;;;;;;12.61;51.38;98716.25;5075670;28;20055;-70
2022/04/22 09:06:00;;;;;;;8.27;5.40;;;;;;;12.53;51.35;98701.94;5087872;28;20043;-71
2022/04/22 09:08:29;;;;;;;;;;;;;;;12.73;51.45;98735.56;5083431;28;20467;-70
2022/04/22 09:11:03;;;;;;;11.40;5.60;;;;;;;12.68;51.36;98732.28;5093144;28;19920;-70
2022/04/22 09:13:34;;;;;;;9.57;5.78;;;;;;;12.71;51.38;98734.78;5092984;28;20047;-70
2022/04/22 09:16:03;;;;;;;11.05;5.75;;;;;;;12.72;51.46;98728.75;5093701;28;20048;-70
2022/04/22 09:18:39;;;;;;;10.43;5.70;;;;;;;12.78;51.24;98741.44;5078657;28;20044;-72
2022/04/22 09:21:15;;;;;;;10.02;5.50;;;;;;;12.89;51.27;98728.34;5092456;28;20044;-70
2022/04/22 09:23:46;;;;;;;9.15;5.22;;;;;;;12.88;50.61;98734.34;5093710;28;20036;-70
2022/04/22 09:26:22;;;;;;;11.30;5.43;;;;;;;12.86;50.75;98729.25;5086830;28;20455;-70
2022/04/22 09:29:00;;;;;;;10.93;5.35;;;;;;;12.87;51.04;98723.28;5079013;28;20055;-70
2022/04/22 09:31:30;;;;;;;8.00;4.80;;;;;;;12.90;50.07;98715.50;5087556;28;20486;-70
2022/04/22 09:33:59;;;;;;;9.75;5.43;;;;;;;12.93;49.38;98722.28;5093272;28;20491;-70
2022/04/22 09:44:47;;;;;;;8.68;4.88;;;;;;;13.26;47.53;98726.56;5073089;28;20498;-69
2022/04/22 09:47:16;;;;;;;10.52;4.55;;;;;;;13.24;48.28;98713.78;5073497;28;20067;-70
2022/04/22 09:49:46;;;;;;;8.55;4.43;;;;;;;13.06;48.79;98686.09;5073097;28;20041;-70
2022/04/22 09:52:15;;;;;;;6.30;4.10;;;;;;;13.26;48.08;98706.91;5056265;28;20037;-70
2022/04/22 09:54:56;;;;;;;8.95;4.38;;;;;;;13.26;46.32;98700.94;5090477;28;20036;-70
2022/04/22 09:57:52;;;;;;;5.82;3.72;;;;;;;13.32;45.90;98685.38;5085200;28;20048;-71
2022/04/22 10:00:24;;;;;;;6.80;3.90;;;;;;;13.41;45.06;98696.19;5094258;28;20114;-70
2022/04/22 10:03:04;;;;;;;5.93;3.53;;;;;;;13.47;43.90;98684.09;5093083;28;20044;-70
2022/04/22 10:05:35;;;;;;;5.20;3.40;;;;;;;13.61;43.34;98692.22;5090013;28;20501;-70
2022/04/22 10:08:13;;;;;;;7.18;3.95;;;;;;;13.66;43.39;98685.25;5075971;28;20113;-71
2022/04/22 10:10:53;;;;;;;6.18;3.67;;;;;;;13.74;44.03;98680.75;5075700;28;20044;-71
2022/04/22 10:13:27;;;;;;;6.18;3.75;;;;;;;13.77;43.78;98676.34;5079364;28;20146;-70
2022/04/22 10:15:57;;;;;;;5.80;3.40;;;;;;;13.74;43.52;98675.63;5089838;28;20513;-70
2022/04/22 10:18:27;;;;;;;6.03;3.50;;;;;;;13.80;44.37;98672.84;5097122;28;20044;-70
2022/04/22 10:20:58;;;;;;;5.15;3.20;;;;;;;13.84;44.20;98674.47;5097302;28;20135;-70
2022/04/22 10:23:29;;;;;;;5.55;3.30;;;;;;;13.81;44.27;98656.59;5086985;28;20050;-70
2022/04/22 10:25:59;;;;;;;6.30;3.05;;;;;;;13.86;44.30;98663.28;5096772;28;20036;-70
2022/04/22 10:28:30;;;;;;;6.80;3.78;;;;;;;13.89;44.13;98668.28;5095598;28;20063;-71
2022/04/22 10:31:07;;;;;;;5.72;3.08;;;;;;;13.70;43.94;98640.72;5096600;28;20048;-71
2022/04/22 10:33:43;;;;;;;7.78;3.20;;;;;;;13.78;43.70;98664.38;5096666;28;20051;-71
2022/04/22 10:36:14;;;;;;;5.25;3.40;;;;;;;13.78;44.49;98661.81;5095512;28;20068;-71
2022/04/22 10:38:46;;;;;;;5.75;3.30;;;;;;;13.55;44.69;98612.97;5096883;28;20059;-71
2022/04/22 10:41:17;;;;;;;6.57;3.55;;;;;;;13.76;43.83;98650.75;5088274;28;20136;-71
2022/04/22 10:47:13;;;;;;;5.43;3.00;;;;;;;13.70;44.30;98651.78;5086674;28;20078;-71
2022/04/22 10:49:37;;;;;;;6.53;3.10;;;;;;;13.60;44.46;98649.56;5096230;28;20121;-71
2022/04/22 10:52:13;;;;;;;5.35;2.88;;;;;;;13.59;44.91;98650.44;5096343;28;20051;-71
2022/04/22 10:55:04;;;;;;;9.75;3.28;;;;;;;13.58;46.04;98656.47;5094224;28;20047;-70
2022/04/22 10:57:42;;;;;;;5.97;3.13;;;;;;;13.54;47.67;98657.41;5089560;28;20490;-70
2022/04/22 11:00:29;;;;;;;5.32;3.17;;;;;;;13.41;48.30;98655.19;5075908;28;20114;-70
2022/04/22 11:03:12;;;;;;;6.80;2.90;;;;;;;13.31;49.68;98664.06;5075717;28;20041;-72
2022/04/22 11:05:47;;;;;;;9.38;3.30;;;;;;;13.23;50.16;98665.97;5075145;28;20041;-70
2022/04/22 11:08:29;;;;;;;5.18;3.28;;;;;;;13.19;51.24;98674.63;5075935;28;20521;-71
2022/04/22 11:11:08;;;;;;;4.40;2.80;;;;;;;13.08;51.43;98663.81;5074216;28;20048;-72
2022/04/22 11:13:41;;;;;;;5.15;2.90;;;;;;;13.02;52.25;98660.56;5074887;28;20502;-72
2022/04/22 11:16:15;;;;;;;5.60;3.35;;;;;;;13.00;52.70;98668.31;5075565;28;20076;-72
2022/04/22 11:19:24;;;;;;;5.78;3.30;;;;;;;12.91;53.31;98663.41;5074598;28;20040;-71
2022/04/22 11:21:55;;;;;;;6.93;2.92;;;;;;;12.67;54.12;98633.31;5074879;28;20048;-72
2022/04/22 11:24:27;;;;;;;5.38;3.25;;;;;;;12.84;54.69;98656.75;5075272;28;20079;-72
2022/04/22 11:27:10;;;;;;;5.38;3.25;;;;;;;12.78;54.47;98646.69;5075147;28;20041;-72
2022/04/22 11:29:40;;;;;;;5.65;3.35;;;;;;;12.88;54.51;98648.13;5075265;28;20548;-72
2022/04/22 11:32:18;;;;;;;6.07;3.80;;;;;;;12.76;54.39;98633.09;5090799;28;20051;-71
2022/04/22 11:35:08;;;;;;;5.50;3.67;;;;;;;12.91;54.66;98652.34;5084029;28;20176;-72
2022/04/22 11:37:39;;;;;;;5.63;3.55;;;;;;;12.95;55.60;98654.78;5092709;28;20089;-71
2022/04/22 11:40:09;;;;;;;6.60;4.50;;;;;;;12.99;56.43;98651.25;5092933;28;20042;-72
2022/04/22 11:42:45;;;;;;;5.70;3.72;;;;;;;12.76;56.64;98612.63;5092057;28;20042;-72
2022/04/22 11:45:15;;;;;;;6.03;4.32;;;;;;;12.86;56.97;98628.56;5093646;28;20393;-72
2022/04/22 11:47:44;;;;;;;7.15;3.92;;;;;;;12.86;56.56;98647.31;5092505;28;20036;-72
2022/04/22 11:50:19;;;;;;;8.73;4.68;;;;;;;12.79;56.75;98648.34;5095020;28;20048;-72
2022/04/22 11:52:56;;;;;;;7.57;4.45;;;;;;;12.74;57.39;98645.09;5093842;28;20048;-72
2022/04/22 11:55:27;;;;;;;6.30;4.00;;;;;;;12.72;57.58;98642.56;5092764;28;20379;-72
2022/04/22 11:58:00;;;;;;;7.40;4.22;;;;;;;12.68;57.48;98640.13;5083502;28;20482;-71
2022/04/22 12:06:08;;;;;;;7.05;4.28;;;;;;;12.46;57.83;98623.63;5094943;28;19927;-72
2022/04/22 12:08:51;;;;;;;6.67;4.13;;;;;;;12.35;57.93;98620.50;5082162;28;20497;-73
2022/04/22 12:11:20;;;;;;;8.27;4.45;;;;;;;12.30;58.57;98627.47;5074728;28;20090;-73
2022/04/22 12:13:50;;;;;;;;;;;;;;;12.22;58.84;98619.13;5075153;28;20044;-71
2022/04/22 12:16:20;;;;;;;7.80;3.85;;;;;;;12.18;59.36;98625.19;5074271;28;19927;-74
2022/04/22 12:18:50;;;;;;;5.85;4.22;;;;;;;12.03;59.33;98604.22;5073253;28;20044;-73
2022/04/22 12:21:20;;;;;;;7.18;4.60;;;;;;;12.12;59.95;98612.56;5073427;28;20051;-71
2022/04/22 12:23:51;;;;;;;;;;;;;;;12.07;59.64;98615.22;5074948;28;20045;-71
2022/04/22 12:26:21;;;;;;;6.97;4.47;;;;;;;12.07;60.27;98610.94;5074097;28;19920;-72
2022/04/22 12:28:59;;;;;;;6.53;4.32;;;;;;;12.03;60.43;98609.34;5072902;28;20124;-72
2022/04/22 12:31:30;;;;;;;7.68;4.30;;;;;;;11.84;61.06;98582.53;5029292;28;20071;-72
2022/04/22 12:34:00;;;;;;;7.80;4.60;;;;;;;11.74;61.60;98568.28;5077930;28;20064;-71
2022/04/22 12:36:30;;;;;;;8.50;5.47;;;;;;;11.98;61.87;98613.72;5085759;28;20054;-72
2022/04/22 12:39:01;;;;;;;11.57;5.80;;;;;;;11.71;62.18;98576.00;5090819;28;20048;-73
2022/04/22 12:41:30;;;;;;;11.23;5.82;;;;;;;11.95;62.87;98606.13;5082915;28;20040;-72
2022/04/22 12:44:12;;;;;;;15.05;6.97;;;;;;;11.89;63.64;98606.28;5056285;28;20572;-71
2022/04/22 12:52:15;;;;;;;6.88;4.90;;;;;;;11.91;64.66;98614.75;5072275;28;20056;-71
2022/04/22 12:54:48;;;;;;;7.68;4.57;;;;;;;11.88;64.98;98613.97;5092086;28;20093;-72
2022/04/22 12:57:23;;;;;;;9.50;4.85;;;;;;;11.72;64.92;98587.94;5088722;28;20203;-72
2022/04/22 12:59:54;;;;;;;7.93;4.78;;;;;;;11.78;65.50;98615.88;5093823;28;20097;-71
2022/04/22 13:02:28;;;;;;;7.13;4.75;;;;;;;11.72;65.79;98617.75;5093848;28;20052;-71
2022/04/22 13:05:00;;;;;;;6.80;4.70;;;;;;;11.78;66.08;98613.34;5092831;28;20040;-73
2022/04/22 13:07:40;;;;;;;9.52;4.53;;;;;;;11.79;66.11;98612.47;5077353;28;20132;-72
2022/04/22 13:10:11;;;;;;;8.38;5.35;;;;;;;11.65;66.25;98581.25;5073870;28;20487;-72